createdAt,value
2017-10-18T00:00:43.121Z,66.97
2017-10-18T00:06:06.111Z,66.89
2017-10-18T00:08:43.529Z,66.85
2017-10-18T00:11:22.393Z,66.23
2017-10-18T00:17:14.637Z,66.82
2017-10-18T00:19:42.456Z,66.79
2017-10-18T00:22:11.332Z,67.07
2017-10-18T00:24:42.508Z,67.21
2017-10-18T00:27:12.506Z,66.56
2017-10-18T00:30:14.379Z,66.17
2017-10-18T00:34:22.767Z,65.91
2017-10-18T00:40:07.431Z,67.00
2017-10-18T00:42:35.029Z,66.67
2017-10-18T00:47:37.334Z,66.63
2017-10-18T00:50:05.992Z,66.47
2017-10-18T00:52:39.040Z,66.62
2017-10-18T00:55:06.653Z,66.75
2017-10-18T00:57:34.538Z,66.56
2017-10-18T01:00:06.850Z,66.94
2017-10-18T01:02:36.547Z,67.39
2017-10-18T01:05:05.287Z,67.46
2017-10-18T01:07:41.867Z,68.07
2017-10-18T01:10:09.623Z,67.93
2017-10-18T01:12:48.074Z,68.38
2017-10-18T01:21:06.335Z,69.93
2017-10-18T01:23:37.601Z,69.49
2017-10-18T01:26:05.720Z,69.75
2017-10-18T01:28:33.596Z,68.78
2017-10-18T01:31:01.838Z,68.62
2017-10-18T01:33:30.096Z,68.54
2017-10-18T01:35:57.836Z,68.16
2017-10-18T01:38:29.126Z,67.75
2017-10-18T01:41:04.267Z,68.15
2017-10-18T01:46:13.358Z,68.10
2017-10-18T01:53:53.588Z,68.49
2017-10-18T01:56:29.344Z,68.63
2017-10-18T01:58:59.718Z,68.06
2017-10-18T02:01:28.359Z,68.26
2017-10-18T02:03:59.856Z,68.43
2017-10-18T02:06:27.778Z,69.42
2017-10-18T02:08:56.262Z,68.90
2017-10-18T02:11:39.907Z,69.30
2017-10-18T02:14:09.004Z,68.93
2017-10-18T02:16:36.762Z,68.52
2017-10-18T03:32:02.919Z,69.80
2017-10-18T03:34:32.353Z,69.98
2017-10-18T03:39:40.526Z,69.84
2017-10-18T03:42:09.883Z,69.11
2017-10-18T03:44:49.901Z,68.96
2017-10-18T03:49:56.754Z,68.74
2017-10-18T03:52:26.712Z,68.61
2017-10-18T03:54:54.410Z,69.70
2017-10-18T03:57:22.587Z,69.05
2017-10-18T03:59:51.204Z,68.87
2017-10-18T04:05:19.498Z,69.85
2017-10-18T04:07:49.893Z,70.54
2017-10-18T04:10:17.690Z,71.32
2017-10-18T04:12:45.865Z,71.26
2017-10-18T04:15:13.746Z,71.66
2017-10-18T04:17:41.548Z,71.29
2017-10-18T04:23:00.938Z,71.19
2017-10-18T04:25:29.394Z,71.39
2017-10-18T04:30:42.805Z,70.92
2017-10-18T04:33:11.368Z,70.85
2017-10-18T04:35:39.541Z,71.68
2017-10-18T04:38:07.559Z,70.74
2017-10-18T04:40:36.395Z,70.43
2017-10-18T04:43:26.695Z,71.15
2017-10-18T04:45:54.577Z,71.17
2017-10-18T04:48:22.335Z,71.21
2017-10-18T04:55:56.498Z,70.56
2017-10-18T04:58:28.535Z,70.57
2017-10-18T05:00:56.551Z,70.89
2017-10-18T05:03:25.051Z,70.29
2017-10-18T05:05:53.908Z,69.94
2017-10-18T05:08:21.704Z,69.37
2017-10-18T05:10:49.502Z,69.03
2017-10-18T05:13:17.217Z,69.54
2017-10-18T05:15:45.393Z,69.36
2017-10-18T05:18:13.099Z,69.86
2017-10-18T05:20:40.749Z,69.07
2017-10-18T05:23:08.428Z,68.79
2017-10-18T05:25:36.747Z,68.85
2017-10-18T05:28:04.501Z,68.72
2017-10-18T05:30:33.396Z,69.05
2017-10-18T05:33:01.336Z,68.97
2017-10-18T05:35:29.563Z,69.28
2017-10-18T05:37:57.429Z,68.85
2017-10-18T05:40:25.230Z,68.82
2017-10-18T05:42:52.857Z,69.23
2017-10-18T05:45:21.061Z,69.00
2017-10-18T05:47:48.638Z,68.78
2017-10-18T05:50:17.000Z,69.35
2017-10-18T05:52:44.553Z,69.29
2017-10-18T05:55:12.246Z,69.70
2017-10-18T05:57:39.830Z,69.71
2017-10-18T06:00:07.473Z,69.60
2017-10-18T06:02:35.500Z,69.88
2017-10-18T06:05:06.158Z,70.15
2017-10-18T06:10:17.497Z,70.71
2017-10-18T06:12:45.086Z,70.62
2017-10-18T06:15:12.708Z,71.40
2017-10-18T06:17:47.592Z,70.71
2017-10-18T06:20:15.160Z,70.08
2017-10-18T06:22:42.740Z,69.89
2017-10-18T06:25:10.354Z,70.81
2017-10-18T06:27:41.305Z,71.60
2017-10-18T06:30:08.870Z,71.49
2017-10-18T06:32:38.622Z,70.78
2017-10-18T06:35:06.441Z,69.92
2017-10-18T06:37:33.913Z,69.61
2017-10-18T06:40:01.460Z,68.68
2017-10-18T06:42:28.926Z,58.48
2017-10-18T06:44:56.444Z,50.81
2017-10-18T06:47:24.934Z,45.37
2017-10-18T06:49:52.465Z,41.54
2017-10-18T06:52:19.998Z,41.30
2017-10-18T06:54:48.076Z,39.13
2017-10-18T06:57:15.993Z,36.52
2017-10-18T06:59:43.473Z,34.28
2017-10-18T07:02:11.061Z,33.13
2017-10-18T07:04:39.334Z,31.85
2017-10-18T07:07:06.880Z,30.90
2017-10-18T07:09:34.922Z,29.57
2017-10-18T07:12:03.213Z,30.68
2017-10-18T07:14:31.230Z,29.68
2017-10-18T07:16:59.076Z,29.24
2017-10-18T07:19:26.628Z,28.19
2017-10-18T07:21:54.213Z,26.93
2017-10-18T07:24:21.824Z,29.86
2017-10-18T07:26:49.372Z,30.44
2017-10-18T07:29:16.979Z,30.31
2017-10-18T07:31:44.473Z,27.69
2017-10-18T07:34:12.019Z,25.37
2017-10-18T07:36:39.544Z,25.69
2017-10-18T07:39:07.101Z,24.40
2017-10-18T07:41:34.699Z,23.96
2017-10-18T07:44:02.255Z,24.44
2017-10-18T07:46:29.798Z,25.14
2017-10-18T07:48:57.496Z,26.69
2017-10-18T07:51:25.116Z,25.81
2017-10-18T07:53:53.006Z,24.16
2017-10-18T07:56:20.564Z,23.67
2017-10-18T07:58:48.102Z,24.45
2017-10-18T08:01:15.828Z,25.94
2017-10-18T08:03:44.542Z,28.00
2017-10-18T08:06:12.071Z,27.57
2017-10-18T08:08:39.640Z,25.90
2017-10-18T08:11:07.173Z,26.89
2017-10-18T08:13:35.082Z,29.21
2017-10-18T08:16:02.639Z,30.70
2017-10-18T08:18:30.222Z,30.29
2017-10-18T08:20:58.302Z,29.35
2017-10-18T08:23:25.875Z,28.75
2017-10-18T08:25:53.482Z,27.96
2017-10-18T08:28:21.032Z,26.69
2017-10-18T08:30:48.607Z,27.86
2017-10-18T08:33:16.147Z,29.57
2017-10-18T08:35:43.697Z,30.47
2017-10-18T08:38:11.336Z,29.84
2017-10-18T08:40:39.134Z,29.24
2017-10-18T08:43:06.859Z,28.14
2017-10-18T08:45:34.403Z,25.65
2017-10-18T08:48:02.722Z,26.53
2017-10-18T08:50:30.324Z,28.45
2017-10-18T08:52:58.658Z,28.92
2017-10-18T08:55:26.296Z,29.90
2017-10-18T08:57:53.971Z,32.21
2017-10-18T09:00:21.493Z,35.89
2017-10-18T09:02:49.219Z,35.07
2017-10-18T09:05:16.872Z,34.96
2017-10-18T09:07:44.437Z,34.61
2017-10-18T09:10:12.052Z,34.04
2017-10-18T09:12:39.662Z,33.75
2017-10-18T09:15:08.193Z,30.76
2017-10-18T09:17:35.705Z,28.27
2017-10-18T09:20:03.364Z,27.08
2017-10-18T09:22:30.905Z,26.01
2017-10-18T09:24:58.446Z,25.91
2017-10-18T09:27:26.042Z,25.02
2017-10-18T09:29:53.595Z,25.68
2017-10-18T09:32:21.364Z,24.69
2017-10-18T09:34:48.896Z,23.13
2017-10-18T09:37:16.521Z,22.81
2017-10-18T09:39:44.139Z,23.11
2017-10-18T09:42:11.775Z,23.19
2017-10-18T09:44:39.314Z,23.31
2017-10-18T09:47:06.957Z,24.93
2017-10-18T09:49:34.461Z,24.58
2017-10-18T09:52:02.031Z,23.43
2017-10-18T09:54:29.646Z,24.10
2017-10-18T09:56:57.200Z,24.35
2017-10-18T09:59:24.735Z,23.60
2017-10-18T10:01:52.333Z,22.05
2017-10-18T10:04:19.876Z,22.01
2017-10-18T10:06:47.494Z,22.64
2017-10-18T10:09:15.100Z,23.04
2017-10-18T10:11:42.628Z,23.72
2017-10-18T10:14:10.163Z,23.80
2017-10-18T10:16:37.697Z,23.61
2017-10-18T10:19:05.236Z,23.37
2017-10-18T10:21:33.751Z,20.09
2017-10-18T10:24:02.043Z,20.04
2017-10-18T10:26:29.536Z,19.57
2017-10-18T10:28:57.084Z,21.67
2017-10-18T10:31:24.601Z,22.44
2017-10-18T10:33:52.144Z,21.09
2017-10-18T10:36:19.714Z,20.58
2017-10-18T10:38:47.298Z,21.23
2017-10-18T10:41:15.213Z,20.72
2017-10-18T10:43:42.714Z,21.42
2017-10-18T10:46:10.270Z,20.87
2017-10-18T10:48:38.459Z,19.46
2017-10-18T10:51:06.001Z,19.06
2017-10-18T10:53:33.614Z,19.07
2017-10-18T10:56:01.256Z,18.05
2017-10-18T10:58:28.839Z,18.05
2017-10-18T11:00:56.373Z,17.77
2017-10-18T11:03:24.966Z,17.46
2017-10-18T11:05:52.503Z,17.12
2017-10-18T11:08:20.043Z,16.71
2017-10-18T11:10:48.273Z,17.43
2017-10-18T11:13:16.778Z,17.64
2017-10-18T11:15:44.291Z,18.02
2017-10-18T11:18:11.829Z,18.72
2017-10-18T11:20:39.474Z,18.80
2017-10-18T11:23:07.022Z,20.15
2017-10-18T11:25:34.579Z,20.71
2017-10-18T11:28:02.798Z,21.99
2017-10-18T11:30:30.379Z,22.18
2017-10-18T11:32:57.902Z,21.87
2017-10-18T11:35:25.441Z,22.14
2017-10-18T11:37:52.987Z,21.64
2017-10-18T11:40:21.164Z,20.63
2017-10-18T11:42:49.264Z,20.59
2017-10-18T11:45:16.818Z,21.18
2017-10-18T11:47:44.313Z,19.65
2017-10-18T11:50:11.856Z,19.59
2017-10-18T11:52:39.334Z,19.34
2017-10-18T11:55:06.865Z,19.36
2017-10-18T11:57:34.464Z,18.46
2017-10-18T12:00:01.964Z,18.04
2017-10-18T12:02:29.537Z,18.10
2017-10-18T12:04:57.098Z,16.58
2017-10-18T12:07:24.650Z,16.42
2017-10-18T12:09:52.897Z,17.26
2017-10-18T12:12:20.465Z,17.52
2017-10-18T12:14:48.423Z,17.16
2017-10-18T12:17:16.880Z,16.67
2017-10-18T12:19:44.518Z,17.74
2017-10-18T12:22:12.137Z,17.37
2017-10-18T12:24:39.743Z,18.67
2017-10-18T12:27:07.362Z,16.67
2017-10-18T12:29:34.941Z,16.48
2017-10-18T12:32:02.720Z,16.53
2017-10-18T12:34:30.275Z,16.62
2017-10-18T12:36:57.837Z,17.27
2017-10-18T12:39:26.174Z,18.28
2017-10-18T12:41:53.725Z,17.27
2017-10-18T12:44:21.338Z,19.18
2017-10-18T12:46:48.932Z,19.54
2017-10-18T12:49:16.446Z,19.97
2017-10-18T12:51:43.968Z,19.34
2017-10-18T12:54:11.499Z,19.70
2017-10-18T12:56:39.053Z,21.69
2017-10-18T12:59:06.644Z,21.16
2017-10-18T13:01:34.209Z,21.86
2017-10-18T13:04:01.733Z,22.64
2017-10-18T13:06:30.126Z,23.19
2017-10-18T13:08:57.620Z,23.36
2017-10-18T13:11:25.220Z,23.08
2017-10-18T13:13:52.778Z,23.34
2017-10-18T13:16:20.333Z,22.79
2017-10-18T13:18:47.818Z,22.60
2017-10-18T13:21:15.349Z,22.87
2017-10-18T13:23:42.864Z,21.53
2017-10-18T13:26:10.380Z,21.24
2017-10-18T13:28:37.926Z,21.95
2017-10-18T13:31:05.477Z,21.62
2017-10-18T13:33:33.014Z,20.75
2017-10-18T13:36:01.133Z,21.35
2017-10-18T13:38:28.652Z,22.67
2017-10-18T13:40:56.190Z,22.04
2017-10-18T13:43:27.266Z,22.91
2017-10-18T13:45:54.901Z,22.67
2017-10-18T13:48:23.343Z,24.11
2017-10-18T13:50:50.936Z,23.93
2017-10-18T13:53:18.510Z,24.86
2017-10-18T13:55:46.630Z,24.68
2017-10-18T13:58:16.116Z,25.02
2017-10-18T14:00:43.642Z,24.72
2017-10-18T14:03:13.090Z,25.65
2017-10-18T14:05:40.966Z,26.28
2017-10-18T14:08:08.572Z,26.35
2017-10-18T14:10:36.186Z,26.75
2017-10-18T14:13:03.741Z,26.06
2017-10-18T14:15:32.305Z,26.32
2017-10-18T14:17:59.847Z,26.27
2017-10-18T14:20:28.007Z,27.54
2017-10-18T14:22:58.627Z,27.31
2017-10-18T14:25:27.594Z,27.00
2017-10-18T14:27:55.274Z,27.70
2017-10-18T14:30:23.244Z,27.71
2017-10-18T14:32:53.075Z,28.54
2017-10-18T14:35:20.851Z,28.93
2017-10-18T14:37:53.612Z,28.11
2017-10-18T14:40:25.415Z,28.60
2017-10-18T14:42:54.092Z,29.08
2017-10-18T14:45:22.622Z,29.21
2017-10-18T14:47:50.350Z,28.97
2017-10-18T14:50:18.029Z,29.67
2017-10-18T14:52:45.607Z,29.33
2017-10-18T14:55:13.312Z,29.92
2017-10-18T14:57:41.820Z,29.70
2017-10-18T15:00:10.552Z,30.73
2017-10-18T15:02:41.131Z,31.20
2017-10-18T15:05:08.675Z,31.32
2017-10-18T15:07:36.478Z,31.17
2017-10-18T15:10:04.249Z,31.84
2017-10-18T15:12:32.042Z,31.08
2017-10-18T15:14:59.579Z,31.67
2017-10-18T15:17:27.274Z,32.66
2017-10-18T15:19:54.924Z,32.81
2017-10-18T15:22:22.480Z,32.35
2017-10-18T15:24:50.023Z,32.63
2017-10-18T15:27:17.549Z,33.07
2017-10-18T15:29:45.007Z,33.95
2017-10-18T15:32:12.604Z,33.53
2017-10-18T15:34:40.188Z,33.71
2017-10-18T15:37:07.724Z,34.31
2017-10-18T15:39:35.334Z,33.69
2017-10-18T15:42:03.149Z,34.24
2017-10-18T15:44:30.813Z,34.35
2017-10-18T15:46:58.360Z,34.68
2017-10-18T15:49:25.902Z,34.70
2017-10-18T15:51:53.429Z,34.67
2017-10-18T15:57:09.310Z,36.03
2017-10-18T15:59:36.825Z,35.76
2017-10-18T16:02:04.489Z,36.39
2017-10-18T16:04:47.719Z,36.97
2017-10-18T16:07:15.265Z,38.19
2017-10-18T16:09:42.895Z,38.82
2017-10-18T16:12:20.696Z,39.27
2017-10-18T16:14:50.052Z,39.54
2017-10-18T16:17:17.845Z,40.77
2017-10-18T16:19:46.055Z,40.56
2017-10-18T16:22:14.191Z,40.74
2017-10-18T16:24:48.524Z,41.14
2017-10-18T16:27:27.455Z,41.56
2017-10-18T16:29:58.557Z,41.58
2017-10-18T16:32:29.241Z,41.94
2017-10-18T16:35:04.005Z,42.17
2017-10-18T16:37:31.508Z,44.06
2017-10-18T16:40:00.146Z,45.01
2017-10-18T16:42:35.458Z,44.97
2017-10-18T16:45:03.676Z,44.71
2017-10-18T16:47:31.311Z,44.59
2017-10-18T16:49:58.804Z,44.69
2017-10-18T16:52:26.432Z,44.53
2017-10-18T16:54:54.029Z,45.64
2017-10-18T16:57:22.482Z,45.92
2017-10-18T16:59:50.049Z,46.70
2017-10-18T17:02:17.731Z,46.43
2017-10-18T17:04:46.293Z,46.33
2017-10-18T17:07:14.184Z,47.28
2017-10-18T17:09:41.911Z,47.78
2017-10-18T17:12:09.727Z,48.51
2017-10-18T17:14:39.088Z,48.49
2017-10-18T17:17:06.754Z,49.04
2017-10-18T17:19:35.425Z,49.03
2017-10-18T17:22:03.277Z,49.49
2017-10-18T17:24:31.352Z,49.77
2017-10-18T17:26:59.364Z,48.69
2017-10-18T17:29:26.921Z,48.74
2017-10-18T17:31:54.851Z,49.12
2017-10-18T17:34:23.323Z,48.56
2017-10-18T17:36:51.492Z,48.38
2017-10-18T17:39:19.287Z,48.55
2017-10-18T17:41:47.171Z,49.01
2017-10-18T17:44:15.187Z,48.99
2017-10-18T17:46:42.809Z,49.33
2017-10-18T17:49:10.882Z,49.32
2017-10-18T17:51:38.506Z,50.10
2017-10-18T17:54:06.167Z,49.58
2017-10-18T17:56:34.444Z,50.38
2017-10-18T17:59:02.009Z,50.14
2017-10-18T18:01:29.677Z,50.93
2017-10-18T18:03:58.047Z,51.24
2017-10-18T18:06:25.563Z,51.30
2017-10-18T18:08:53.348Z,51.93
2017-10-18T18:11:20.970Z,51.38
2017-10-18T18:13:48.629Z,51.97
2017-10-18T18:16:17.196Z,51.76
2017-10-18T18:18:45.821Z,52.36
2017-10-18T18:21:13.532Z,52.25
2017-10-18T18:23:41.313Z,53.04
2017-10-18T18:26:10.008Z,53.15
2017-10-18T18:28:37.566Z,52.66
2017-10-18T18:31:05.278Z,52.96
2017-10-18T18:33:33.149Z,52.54
2017-10-18T18:36:01.567Z,52.79
2017-10-18T18:38:29.373Z,53.62
2017-10-18T18:40:57.025Z,54.35
2017-10-18T18:43:25.589Z,55.12
2017-10-18T18:45:53.123Z,55.04
2017-10-18T18:48:20.784Z,54.01
2017-10-18T18:50:48.432Z,54.39
2017-10-18T18:53:16.076Z,55.22
2017-10-18T18:55:43.638Z,55.16
2017-10-18T18:58:11.170Z,54.51
2017-10-18T19:00:38.699Z,54.46
2017-10-18T19:03:06.381Z,54.39
2017-10-18T19:05:34.018Z,54.74
2017-10-18T19:08:01.563Z,54.72
2017-10-18T19:10:29.137Z,55.10
2017-10-18T19:12:56.749Z,55.32
2017-10-18T19:15:25.354Z,55.85
2017-10-18T19:17:53.130Z,55.60
2017-10-18T19:20:21.510Z,54.95
2017-10-18T19:22:49.365Z,55.00
2017-10-18T19:25:17.887Z,55.31
2017-10-18T19:27:46.538Z,55.38
2017-10-18T19:30:14.289Z,54.89
2017-10-18T19:32:41.955Z,55.08
2017-10-18T19:35:09.590Z,55.47
2017-10-18T19:37:38.126Z,55.61
2017-10-18T19:40:11.022Z,55.76
2017-10-18T19:42:38.769Z,55.54
2017-10-18T19:45:07.432Z,55.83
2017-10-18T19:47:35.810Z,56.76
2017-10-18T19:50:03.833Z,57.04
2017-10-18T19:52:32.051Z,56.86
2017-10-18T19:54:59.631Z,56.64
2017-10-18T19:57:27.416Z,56.98
2017-10-18T19:59:58.254Z,58.06
2017-10-18T20:02:26.094Z,58.25
2017-10-18T20:04:54.677Z,58.67
2017-10-18T20:07:23.622Z,58.83
2017-10-18T20:09:51.346Z,57.83
2017-10-18T20:12:20.811Z,57.56
2017-10-18T20:14:49.127Z,57.22
2017-10-18T20:17:16.794Z,57.36
2017-10-18T20:19:44.515Z,57.56
2017-10-18T20:22:12.666Z,58.31
2017-10-18T20:24:40.833Z,57.76
2017-10-18T20:27:09.384Z,57.71
2017-10-18T20:29:37.623Z,57.90
2017-10-18T20:32:08.396Z,58.16
2017-10-18T20:34:36.022Z,57.40
2017-10-18T20:37:04.743Z,57.97
2017-10-18T20:39:33.534Z,58.92
2017-10-18T20:42:02.134Z,59.80
2017-10-18T20:44:29.866Z,59.51
2017-10-18T20:46:58.548Z,59.25
2017-10-18T20:49:27.766Z,59.16
2017-10-18T20:51:56.940Z,60.25
2017-10-18T20:54:24.538Z,59.76
2017-10-18T20:56:52.933Z,60.04
2017-10-18T20:59:21.868Z,60.21
2017-10-18T21:01:50.404Z,60.20
2017-10-18T21:04:18.108Z,60.15
2017-10-18T21:06:45.798Z,59.74
2017-10-18T21:09:13.634Z,59.47
2017-10-18T21:11:41.321Z,59.85
2017-10-18T21:14:09.313Z,60.18
2017-10-18T21:16:37.792Z,59.93
2017-10-18T21:19:05.513Z,60.36
2017-10-18T21:21:34.049Z,60.94
2017-10-18T21:24:01.717Z,60.10
2017-10-18T21:26:31.306Z,59.74
2017-10-18T21:28:59.846Z,60.40
2017-10-18T21:31:27.981Z,60.64
2017-10-18T21:33:55.694Z,60.93
2017-10-18T21:36:23.391Z,59.85
2017-10-18T21:38:52.532Z,59.98
2017-10-18T21:41:20.167Z,59.67
2017-10-18T21:43:47.770Z,60.46
2017-10-18T21:46:15.532Z,61.21
2017-10-18T21:48:43.192Z,60.92
2017-10-18T21:51:11.433Z,61.09
2017-10-18T21:53:40.925Z,60.63
2017-10-18T21:56:08.662Z,61.12
2017-10-18T21:58:36.982Z,61.39
2017-10-18T22:01:05.497Z,61.73
2017-10-18T22:03:33.172Z,61.65
2017-10-18T22:06:00.947Z,61.27
2017-10-18T22:08:28.561Z,61.31
2017-10-18T22:10:57.296Z,61.16
2017-10-18T22:13:25.037Z,61.19
2017-10-18T22:15:52.683Z,61.38
2017-10-18T22:18:20.399Z,61.31
2017-10-18T22:20:48.017Z,61.22
2017-10-18T22:23:15.799Z,61.48
2017-10-18T22:25:43.452Z,61.44
2017-10-18T22:30:45.582Z,61.12
2017-10-18T22:33:13.926Z,63.13
2017-10-18T22:35:43.584Z,62.45
2017-10-18T22:38:11.257Z,62.33
2017-10-18T22:40:38.853Z,62.17
2017-10-18T22:43:06.837Z,61.67
2017-10-18T22:45:34.528Z,62.28
2017-10-18T22:48:03.947Z,62.60
2017-10-18T22:50:32.203Z,62.72
2017-10-18T22:52:59.882Z,63.22
2017-10-18T22:55:27.543Z,62.74
2017-10-18T22:57:55.179Z,63.09
2017-10-18T23:00:23.866Z,62.90
2017-10-18T23:02:51.542Z,63.34
2017-10-18T23:05:19.271Z,63.50
2017-10-18T23:07:46.987Z,63.56
2017-10-18T23:10:14.626Z,63.68
2017-10-18T23:12:42.284Z,63.37
2017-10-18T23:15:10.632Z,63.13
2017-10-18T23:17:38.354Z,62.85
2017-10-18T23:20:06.038Z,62.81
2017-10-18T23:22:33.805Z,62.57
2017-10-18T23:25:01.551Z,62.48
2017-10-18T23:27:30.298Z,62.20
2017-10-18T23:29:57.859Z,62.27
2017-10-18T23:32:25.429Z,62.76
2017-10-18T23:34:52.989Z,62.94
2017-10-18T23:37:20.627Z,63.39
2017-10-18T23:39:48.183Z,63.12
2017-10-18T23:42:15.800Z,63.12
2017-10-18T23:44:45.656Z,63.67
2017-10-18T23:47:13.221Z,64.22
2017-10-18T23:49:40.899Z,63.42
2017-10-18T23:52:08.531Z,63.82
2017-10-18T23:54:36.268Z,63.62
2017-10-18T23:57:03.860Z,64.24
2017-10-18T23:59:31.671Z,64.04
